sensor_id;sensor_type;location;lat;lon;timestamp;temperature;humidity
14749;DHT22;7466;53.574;9.976;2022-11-14T00:01:35;8.20;99.90
14749;DHT22;7466;53.574;9.976;2022-11-14T00:04:02;8.20;99.90
14749;DHT22;7466;53.574;9.976;2022-11-14T00:06:30;8.20;99.90
14749;DHT22;7466;53.574;9.976;2022-11-14T00:08:57;8.20;99.90
14749;DHT22;7466;53.574;9.976;2022-11-14T00:11:24;8.10;99.90
14749;DHT22;7466;53.574;9.976;2022-11-14T00:13:50;8.20;99.90
14749;DHT22;7466;53.574;9.976;2022-11-14T00:16:17;8.10;99.90
14749;DHT22;7466;53.574;9.976;2022-11-14T00:18:44;8.10;99.90
14749;DHT22;7466;53.574;9.976;2022-11-14T00:21:11;8.00;99.90
14749;DHT22;7466;53.574;9.976;2022-11-14T00:23:39;8.00;99.90
14749;DHT22;7466;53.574;9.976;2022-11-14T00:26:05;8.00;99.90
14749;DHT22;7466;53.574;9.976;2022-11-14T00:28:32;7.90;99.90
14749;DHT22;7466;53.574;9.976;2022-11-14T00:30:59;7.90;99.90
14749;DHT22;7466;53.574;9.976;2022-11-14T00:33:26;7.90;99.90
14749;DHT22;7466;53.574;9.976;2022-11-14T00:35:53;7.90;99.90
14749;DHT22;7466;53.574;9.976;2022-11-14T00:38:21;7.90;99.90
14749;DHT22;7466;53.574;9.976;2022-11-14T00:40:49;7.80;99.90
14749;DHT22;7466;53.574;9.976;2022-11-14T00:43:16;7.80;99.90
14749;DHT22;7466;53.574;9.976;2022-11-14T00:45:43;7.80;99.90
14749;DHT22;7466;53.574;9.976;2022-11-14T00:48:10;7.80;99.90
14749;DHT22;7466;53.574;9.976;2022-11-14T00:50:37;7.80;99.90
14749;DHT22;7466;53.574;9.976;2022-11-14T00:53:04;7.80;99.90
14749;DHT22;7466;53.574;9.976;2022-11-14T00:55:30;7.70;99.90
14749;DHT22;7466;53.574;9.976;2022-11-14T00:57:58;7.70;99.90
14749;DHT22;7466;53.574;9.976;2022-11-14T01:00:25;7.70;99.90
14749;DHT22;7466;53.574;9.976;2022-11-14T01:02:52;7.70;99.90
14749;DHT22;7466;53.574;9.976;2022-11-14T01:05:21;7.70;99.90
14749;DHT22;7466;53.574;9.976;2022-11-14T01:07:48;7.70;99.90
14749;DHT22;7466;53.574;9.976;2022-11-14T01:10:15;7.70;99.90
14749;DHT22;7466;53.574;9.976;2022-11-14T01:12:41;7.70;99.90
14749;DHT22;7466;53.574;9.976;2022-11-14T01:15:10;7.70;99.90
14749;DHT22;7466;53.574;9.976;2022-11-14T01:17:36;7.70;99.90
14749;DHT22;7466;53.574;9.976;2022-11-14T01:20:04;7.70;99.90
14749;DHT22;7466;53.574;9.976;2022-11-14T01:22:31;7.60;99.90
14749;DHT22;7466;53.574;9.976;2022-11-14T01:24:58;7.60;99.90
14749;DHT22;7466;53.574;9.976;2022-11-14T01:27:25;7.60;99.90
14749;DHT22;7466;53.574;9.976;2022-11-14T01:29:51;7.60;99.90
14749;DHT22;7466;53.574;9.976;2022-11-14T01:32:19;7.60;99.90
14749;DHT22;7466;53.574;9.976;2022-11-14T01:34:46;7.60;99.90
14749;DHT22;7466;53.574;9.976;2022-11-14T01:37:13;7.60;99.90
14749;DHT22;7466;53.574;9.976;2022-11-14T01:39:39;7.60;99.90
14749;DHT22;7466;53.574;9.976;2022-11-14T01:42:06;7.50;99.90
14749;DHT22;7466;53.574;9.976;2022-11-14T01:44:52;7.60;99.90
14749;DHT22;7466;53.574;9.976;2022-11-14T01:47:23;7.60;99.90
14749;DHT22;7466;53.574;9.976;2022-11-14T01:49:53;7.60;99.90
14749;DHT22;7466;53.574;9.976;2022-11-14T01:52:23;7.50;99.90
14749;DHT22;7466;53.574;9.976;2022-11-14T01:54:54;7.50;99.90
14749;DHT22;7466;53.574;9.976;2022-11-14T01:57:24;7.50;99.90
14749;DHT22;7466;53.574;9.976;2022-11-14T01:59:55;7.50;99.90
14749;DHT22;7466;53.574;9.976;2022-11-14T02:02:25;7.50;99.90
14749;DHT22;7466;53.574;9.976;2022-11-14T02:04:55;7.50;99.90
14749;DHT22;7466;53.574;9.976;2022-11-14T02:07:24;7.50;99.90
14749;DHT22;7466;53.574;9.976;2022-11-14T02:09:52;7.50;99.90
14749;DHT22;7466;53.574;9.976;2022-11-14T02:12:19;7.50;99.90
14749;DHT22;7466;53.574;9.976;2022-11-14T02:14:49;7.50;99.90
14749;DHT22;7466;53.574;9.976;2022-11-14T02:17:18;7.50;99.90
14749;DHT22;7466;53.574;9.976;2022-11-14T02:19:49;7.50;99.90
14749;DHT22;7466;53.574;9.976;2022-11-14T02:22:17;7.50;99.90
14749;DHT22;7466;53.574;9.976;2022-11-14T02:24:45;7.50;99.90
14749;DHT22;7466;53.574;9.976;2022-11-14T02:27:13;7.50;99.90
14749;DHT22;7466;53.574;9.976;2022-11-14T02:29:40;7.50;99.90
14749;DHT22;7466;53.574;9.976;2022-11-14T02:32:07;7.50;99.90
14749;DHT22;7466;53.574;9.976;2022-11-14T02:34:34;7.50;99.90
14749;DHT22;7466;53.574;9.976;2022-11-14T02:37:01;7.50;99.90
14749;DHT22;7466;53.574;9.976;2022-11-14T02:39:29;7.50;99.90
14749;DHT22;7466;53.574;9.976;2022-11-14T02:41:55;7.50;99.90
14749;DHT22;7466;53.574;9.976;2022-11-14T02:44:22;7.50;99.90
14749;DHT22;7466;53.574;9.976;2022-11-14T02:46:49;7.50;99.90
14749;DHT22;7466;53.574;9.976;2022-11-14T02:49:16;7.50;99.90
14749;DHT22;7466;53.574;9.976;2022-11-14T02:51:42;7.50;99.90
14749;DHT22;7466;53.574;9.976;2022-11-14T02:54:09;7.50;99.90
14749;DHT22;7466;53.574;9.976;2022-11-14T02:56:37;7.50;99.90
14749;DHT22;7466;53.574;9.976;2022-11-14T02:59:04;7.50;99.90
14749;DHT22;7466;53.574;9.976;2022-11-14T03:01:30;7.50;99.90
14749;DHT22;7466;53.574;9.976;2022-11-14T03:03:57;7.50;99.90
14749;DHT22;7466;53.574;9.976;2022-11-14T03:06:24;7.50;99.90
14749;DHT22;7466;53.574;9.976;2022-11-14T03:08:50;7.50;99.90
14749;DHT22;7466;53.574;9.976;2022-11-14T03:11:17;7.50;99.90
14749;DHT22;7466;53.574;9.976;2022-11-14T03:13:45;7.50;99.90
14749;DHT22;7466;53.574;9.976;2022-11-14T03:16:12;7.50;99.90
14749;DHT22;7466;53.574;9.976;2022-11-14T03:18:39;7.50;99.90
14749;DHT22;7466;53.574;9.976;2022-11-14T03:21:07;7.50;99.90
14749;DHT22;7466;53.574;9.976;2022-11-14T03:23:34;7.50;99.90
14749;DHT22;7466;53.574;9.976;2022-11-14T03:26:01;7.50;99.90
14749;DHT22;7466;53.574;9.976;2022-11-14T03:28:29;7.50;99.90
14749;DHT22;7466;53.574;9.976;2022-11-14T03:30:57;7.50;99.90
14749;DHT22;7466;53.574;9.976;2022-11-14T03:33:24;7.50;99.90
14749;DHT22;7466;53.574;9.976;2022-11-14T03:35:51;7.40;99.90
14749;DHT22;7466;53.574;9.976;2022-11-14T03:38:19;7.50;99.90
14749;DHT22;7466;53.574;9.976;2022-11-14T03:40:47;7.40;99.90
14749;DHT22;7466;53.574;9.976;2022-11-14T03:43:14;7.40;99.90
14749;DHT22;7466;53.574;9.976;2022-11-14T03:45:41;7.40;99.90
14749;DHT22;7466;53.574;9.976;2022-11-14T03:48:10;7.40;99.90
14749;DHT22;7466;53.574;9.976;2022-11-14T03:50:37;7.40;99.90
14749;DHT22;7466;53.574;9.976;2022-11-14T03:53:04;7.50;99.90
14749;DHT22;7466;53.574;9.976;2022-11-14T03:55:30;7.40;99.90
14749;DHT22;7466;53.574;9.976;2022-11-14T03:57:57;7.50;99.90
14749;DHT22;7466;53.574;9.976;2022-11-14T04:00:24;7.40;99.90
14749;DHT22;7466;53.574;9.976;2022-11-14T04:02:53;7.40;99.90
14749;DHT22;7466;53.574;9.976;2022-11-14T04:05:21;7.40;99.90
14749;DHT22;7466;53.574;9.976;2022-11-14T04:07:48;7.40;99.90
14749;DHT22;7466;53.574;9.976;2022-11-14T04:10:15;7.50;99.90
14749;DHT22;7466;53.574;9.976;2022-11-14T04:12:46;7.40;99.90
14749;DHT22;7466;53.574;9.976;2022-11-14T04:15:13;7.40;99.90
14749;DHT22;7466;53.574;9.976;2022-11-14T04:17:40;7.40;99.90
14749;DHT22;7466;53.574;9.976;2022-11-14T04:20:08;7.40;99.90
14749;DHT22;7466;53.574;9.976;2022-11-14T04:22:36;7.40;99.90
14749;DHT22;7466;53.574;9.976;2022-11-14T04:25:03;7.30;99.90
14749;DHT22;7466;53.574;9.976;2022-11-14T04:27:30;7.30;99.90
14749;DHT22;7466;53.574;9.976;2022-11-14T04:29:56;7.30;99.90
14749;DHT22;7466;53.574;9.976;2022-11-14T04:32:23;7.40;99.90
14749;DHT22;7466;53.574;9.976;2022-11-14T04:34:50;7.30;99.90
14749;DHT22;7466;53.574;9.976;2022-11-14T04:37:16;7.30;99.90
14749;DHT22;7466;53.574;9.976;2022-11-14T04:39:45;7.30;99.90
14749;DHT22;7466;53.574;9.976;2022-11-14T04:42:11;7.30;99.90
14749;DHT22;7466;53.574;9.976;2022-11-14T04:44:38;7.30;99.90
14749;DHT22;7466;53.574;9.976;2022-11-14T04:47:05;7.30;99.90
14749;DHT22;7466;53.574;9.976;2022-11-14T04:49:31;7.30;99.90
14749;DHT22;7466;53.574;9.976;2022-11-14T04:51:58;7.30;99.90
14749;DHT22;7466;53.574;9.976;2022-11-14T04:54:25;7.30;99.90
14749;DHT22;7466;53.574;9.976;2022-11-14T04:56:53;7.30;99.90
14749;DHT22;7466;53.574;9.976;2022-11-14T04:59:20;7.30;99.90
14749;DHT22;7466;53.574;9.976;2022-11-14T05:01:46;7.30;99.90
14749;DHT22;7466;53.574;9.976;2022-11-14T05:04:13;7.30;99.90
14749;DHT22;7466;53.574;9.976;2022-11-14T05:06:40;7.30;99.90
14749;DHT22;7466;53.574;9.976;2022-11-14T05:09:07;7.30;99.90
14749;DHT22;7466;53.574;9.976;2022-11-14T05:11:34;7.30;99.90
14749;DHT22;7466;53.574;9.976;2022-11-14T05:14:02;7.20;99.90
14749;DHT22;7466;53.574;9.976;2022-11-14T05:16:28;7.20;99.90
14749;DHT22;7466;53.574;9.976;2022-11-14T05:18:55;7.30;99.90
14749;DHT22;7466;53.574;9.976;2022-11-14T05:21:22;7.20;99.90
14749;DHT22;7466;53.574;9.976;2022-11-14T05:23:49;7.30;99.90
14749;DHT22;7466;53.574;9.976;2022-11-14T05:26:16;7.20;99.90
14749;DHT22;7466;53.574;9.976;2022-11-14T05:28:43;7.20;99.90
14749;DHT22;7466;53.574;9.976;2022-11-14T05:31:13;7.20;99.90
14749;DHT22;7466;53.574;9.976;2022-11-14T05:33:42;7.20;99.90
14749;DHT22;7466;53.574;9.976;2022-11-14T05:36:10;7.20;99.90
14749;DHT22;7466;53.574;9.976;2022-11-14T05:38:38;7.20;99.90
14749;DHT22;7466;53.574;9.976;2022-11-14T05:41:05;7.20;99.90
14749;DHT22;7466;53.574;9.976;2022-11-14T05:43:32;7.20;99.90
14749;DHT22;7466;53.574;9.976;2022-11-14T05:45:59;7.30;99.90
14749;DHT22;7466;53.574;9.976;2022-11-14T05:48:28;7.20;99.90
14749;DHT22;7466;53.574;9.976;2022-11-14T05:50:56;7.20;99.90
14749;DHT22;7466;53.574;9.976;2022-11-14T05:53:23;7.20;99.90
14749;DHT22;7466;53.574;9.976;2022-11-14T05:55:50;7.20;99.90
14749;DHT22;7466;53.574;9.976;2022-11-14T05:58:16;7.20;99.90
14749;DHT22;7466;53.574;9.976;2022-11-14T06:00:43;7.20;99.90
14749;DHT22;7466;53.574;9.976;2022-11-14T06:03:10;7.20;99.90
14749;DHT22;7466;53.574;9.976;2022-11-14T06:05:40;7.20;99.90
14749;DHT22;7466;53.574;9.976;2022-11-14T06:08:07;7.20;99.90
14749;DHT22;7466;53.574;9.976;2022-11-14T06:10:34;7.30;99.90
14749;DHT22;7466;53.574;9.976;2022-11-14T06:13:01;7.30;99.90
14749;DHT22;7466;53.574;9.976;2022-11-14T06:15:28;7.30;99.90
14749;DHT22;7466;53.574;9.976;2022-11-14T06:17:54;7.20;99.90
14749;DHT22;7466;53.574;9.976;2022-11-14T06:20:22;7.20;99.90
14749;DHT22;7466;53.574;9.976;2022-11-14T06:22:53;7.20;99.90
14749;DHT22;7466;53.574;9.976;2022-11-14T06:25:19;7.30;99.90
14749;DHT22;7466;53.574;9.976;2022-11-14T06:27:46;7.30;99.90
14749;DHT22;7466;53.574;9.976;2022-11-14T06:30:13;7.30;99.90
14749;DHT22;7466;53.574;9.976;2022-11-14T06:32:40;7.30;99.90
14749;DHT22;7466;53.574;9.976;2022-11-14T06:35:07;7.30;99.90
14749;DHT22;7466;53.574;9.976;2022-11-14T06:37:34;7.30;99.90
14749;DHT22;7466;53.574;9.976;2022-11-14T06:40:03;7.20;99.90
14749;DHT22;7466;53.574;9.976;2022-11-14T06:42:30;7.20;99.90
14749;DHT22;7466;53.574;9.976;2022-11-14T06:44:57;7.20;99.90
14749;DHT22;7466;53.574;9.976;2022-11-14T06:47:23;7.10;99.90
14749;DHT22;7466;53.574;9.976;2022-11-14T06:49:50;7.10;99.90
14749;DHT22;7466;53.574;9.976;2022-11-14T06:52:17;7.10;99.90
14749;DHT22;7466;53.574;9.976;2022-11-14T06:54:43;7.10;99.90
14749;DHT22;7466;53.574;9.976;2022-11-14T06:57:12;7.10;99.90
14749;DHT22;7466;53.574;9.976;2022-11-14T06:59:38;7.10;99.90
14749;DHT22;7466;53.574;9.976;2022-11-14T07:02:05;7.10;99.90
14749;DHT22;7466;53.574;9.976;2022-11-14T07:04:32;7.10;99.90
14749;DHT22;7466;53.574;9.976;2022-11-14T07:06:58;7.10;99.90
14749;DHT22;7466;53.574;9.976;2022-11-14T07:09:25;7.00;99.90
14749;DHT22;7466;53.574;9.976;2022-11-14T07:11:52;7.00;99.90
14749;DHT22;7466;53.574;9.976;2022-11-14T07:14:20;7.00;99.90
14749;DHT22;7466;53.574;9.976;2022-11-14T07:16:47;7.00;99.90
14749;DHT22;7466;53.574;9.976;2022-11-14T07:19:13;7.00;99.90
14749;DHT22;7466;53.574;9.976;2022-11-14T07:21:40;7.00;99.90
14749;DHT22;7466;53.574;9.976;2022-11-14T07:24:07;7.00;99.90
14749;DHT22;7466;53.574;9.976;2022-11-14T07:26:34;7.00;99.90
14749;DHT22;7466;53.574;9.976;2022-11-14T07:29:01;7.00;99.90
14749;DHT22;7466;53.574;9.976;2022-11-14T07:31:29;7.00;99.90
14749;DHT22;7466;53.574;9.976;2022-11-14T07:33:56;7.00;99.90
14749;DHT22;7466;53.574;9.976;2022-11-14T07:36:22;7.00;99.90
14749;DHT22;7466;53.574;9.976;2022-11-14T07:38:49;7.00;99.90
14749;DHT22;7466;53.574;9.976;2022-11-14T07:41:16;7.00;99.90
14749;DHT22;7466;53.574;9.976;2022-11-14T07:43:43;7.10;99.90
14749;DHT22;7466;53.574;9.976;2022-11-14T07:46:12;7.00;99.90
14749;DHT22;7466;53.574;9.976;2022-11-14T07:48:40;7.10;99.90
14749;DHT22;7466;53.574;9.976;2022-11-14T07:51:09;7.10;99.90
14749;DHT22;7466;53.574;9.976;2022-11-14T07:53:39;7.00;99.90
14749;DHT22;7466;53.574;9.976;2022-11-14T07:56:07;7.10;99.90
14749;DHT22;7466;53.574;9.976;2022-11-14T07:58:35;7.10;99.90
14749;DHT22;7466;53.574;9.976;2022-11-14T08:01:03;7.00;99.90
14749;DHT22;7466;53.574;9.976;2022-11-14T08:03:30;7.00;99.90
14749;DHT22;7466;53.574;9.976;2022-11-14T08:06:02;7.00;99.90
14749;DHT22;7466;53.574;9.976;2022-11-14T08:08:29;7.00;99.90
14749;DHT22;7466;53.574;9.976;2022-11-14T08:10:56;6.90;99.90
14749;DHT22;7466;53.574;9.976;2022-11-14T08:13:23;6.90;99.90
14749;DHT22;7466;53.574;9.976;2022-11-14T08:15:51;6.90;99.90
14749;DHT22;7466;53.574;9.976;2022-11-14T08:18:18;6.90;99.90
14749;DHT22;7466;53.574;9.976;2022-11-14T08:20:45;7.00;99.90
14749;DHT22;7466;53.574;9.976;2022-11-14T08:23:13;7.00;99.90
14749;DHT22;7466;53.574;9.976;2022-11-14T08:25:40;7.10;99.90
14749;DHT22;7466;53.574;9.976;2022-11-14T08:28:07;7.10;99.90
14749;DHT22;7466;53.574;9.976;2022-11-14T08:30:34;7.10;99.90
14749;DHT22;7466;53.574;9.976;2022-11-14T08:33:01;7.10;99.90
14749;DHT22;7466;53.574;9.976;2022-11-14T08:35:28;7.10;99.90
14749;DHT22;7466;53.574;9.976;2022-11-14T08:37:55;7.10;99.90
14749;DHT22;7466;53.574;9.976;2022-11-14T08:40:23;7.00;99.90
14749;DHT22;7466;53.574;9.976;2022-11-14T08:42:50;7.00;99.90
14749;DHT22;7466;53.574;9.976;2022-11-14T08:45:17;7.00;99.90
14749;DHT22;7466;53.574;9.976;2022-11-14T08:47:50;7.10;99.90
14749;DHT22;7466;53.574;9.976;2022-11-14T08:50:18;7.00;99.90
14749;DHT22;7466;53.574;9.976;2022-11-14T08:52:48;7.10;99.90
14749;DHT22;7466;53.574;9.976;2022-11-14T08:55:16;7.10;99.90
14749;DHT22;7466;53.574;9.976;2022-11-14T08:57:44;7.00;99.90
14749;DHT22;7466;53.574;9.976;2022-11-14T09:00:11;7.00;99.90
14749;DHT22;7466;53.574;9.976;2022-11-14T09:02:38;7.00;99.90
14749;DHT22;7466;53.574;9.976;2022-11-14T09:05:06;7.10;99.90
14749;DHT22;7466;53.574;9.976;2022-11-14T09:07:33;7.10;99.90
14749;DHT22;7466;53.574;9.976;2022-11-14T09:09:59;7.00;99.90
14749;DHT22;7466;53.574;9.976;2022-11-14T09:12:26;7.00;99.90
14749;DHT22;7466;53.574;9.976;2022-11-14T09:14:55;7.00;99.90
14749;DHT22;7466;53.574;9.976;2022-11-14T09:17:22;7.00;99.90
14749;DHT22;7466;53.574;9.976;2022-11-14T09:19:49;7.00;99.90
14749;DHT22;7466;53.574;9.976;2022-11-14T09:22:15;7.10;99.90
14749;DHT22;7466;53.574;9.976;2022-11-14T09:24:43;7.10;99.90
14749;DHT22;7466;53.574;9.976;2022-11-14T09:27:11;7.10;99.90
14749;DHT22;7466;53.574;9.976;2022-11-14T09:29:38;7.10;99.90
14749;DHT22;7466;53.574;9.976;2022-11-14T09:32:06;7.10;99.90
14749;DHT22;7466;53.574;9.976;2022-11-14T09:34:34;7.10;99.90
14749;DHT22;7466;53.574;9.976;2022-11-14T09:37:01;7.10;99.90
14749;DHT22;7466;53.574;9.976;2022-11-14T09:39:28;7.10;99.90
14749;DHT22;7466;53.574;9.976;2022-11-14T09:42:07;7.20;99.90
14749;DHT22;7466;53.574;9.976;2022-11-14T09:47:29;7.20;99.90
14749;DHT22;7466;53.574;9.976;2022-11-14T09:50:03;7.20;99.90
14749;DHT22;7466;53.574;9.976;2022-11-14T09:52:34;7.20;99.90
14749;DHT22;7466;53.574;9.976;2022-11-14T09:55:08;7.20;99.90
14749;DHT22;7466;53.574;9.976;2022-11-14T09:57:36;7.20;99.90
14749;DHT22;7466;53.574;9.976;2022-11-14T10:00:11;7.30;99.90
14749;DHT22;7466;53.574;9.976;2022-11-14T10:02:50;7.30;99.90
14749;DHT22;7466;53.574;9.976;2022-11-14T10:05:48;7.30;99.90
14749;DHT22;7466;53.574;9.976;2022-11-14T10:08:34;7.40;99.90
14749;DHT22;7466;53.574;9.976;2022-11-14T10:11:06;7.40;99.90
14749;DHT22;7466;53.574;9.976;2022-11-14T10:13:45;7.40;99.90
14749;DHT22;7466;53.574;9.976;2022-11-14T10:16:19;7.40;99.90
14749;DHT22;7466;53.574;9.976;2022-11-14T10:19:02;7.40;99.90
14749;DHT22;7466;53.574;9.976;2022-11-14T10:21:40;7.40;99.90
14749;DHT22;7466;53.574;9.976;2022-11-14T10:24:25;7.50;99.90
14749;DHT22;7466;53.574;9.976;2022-11-14T10:27:01;7.50;99.90
14749;DHT22;7466;53.574;9.976;2022-11-14T10:33:03;7.60;99.90
14749;DHT22;7466;53.574;9.976;2022-11-14T10:35:39;7.50;99.90
14749;DHT22;7466;53.574;9.976;2022-11-14T10:38:11;7.50;99.90
14749;DHT22;7466;53.574;9.976;2022-11-14T10:40:41;7.60;99.90
14749;DHT22;7466;53.574;9.976;2022-11-14T10:43:17;7.70;99.90
14749;DHT22;7466;53.574;9.976;2022-11-14T10:45:49;7.70;99.90
14749;DHT22;7466;53.574;9.976;2022-11-14T10:48:28;7.70;99.90
14749;DHT22;7466;53.574;9.976;2022-11-14T10:50:57;7.80;99.90
14749;DHT22;7466;53.574;9.976;2022-11-14T10:53:40;7.80;99.90
14749;DHT22;7466;53.574;9.976;2022-11-14T10:56:10;7.80;99.90
14749;DHT22;7466;53.574;9.976;2022-11-14T10:58:39;7.90;99.90
14749;DHT22;7466;53.574;9.976;2022-11-14T11:01:36;7.90;99.90
14749;DHT22;7466;53.574;9.976;2022-11-14T11:04:19;7.90;99.90
14749;DHT22;7466;53.574;9.976;2022-11-14T11:06:48;7.90;99.90
14749;DHT22;7466;53.574;9.976;2022-11-14T11:09:17;8.00;99.90
14749;DHT22;7466;53.574;9.976;2022-11-14T11:12:03;8.10;99.90
14749;DHT22;7466;53.574;9.976;2022-11-14T11:14:31;8.00;99.90
14749;DHT22;7466;53.574;9.976;2022-11-14T11:17:22;8.10;99.90
14749;DHT22;7466;53.574;9.976;2022-11-14T11:19:49;8.20;99.90
14749;DHT22;7466;53.574;9.976;2022-11-14T11:22:35;8.40;99.90
14749;DHT22;7466;53.574;9.976;2022-11-14T11:25:22;8.60;99.90
14749;DHT22;7466;53.574;9.976;2022-11-14T11:28:03;8.70;99.90
14749;DHT22;7466;53.574;9.976;2022-11-14T11:30:30;8.90;99.90
14749;DHT22;7466;53.574;9.976;2022-11-14T11:32:59;9.10;99.90
14749;DHT22;7466;53.574;9.976;2022-11-14T11:35:40;9.20;99.90
14749;DHT22;7466;53.574;9.976;2022-11-14T11:38:10;9.10;99.90
14749;DHT22;7466;53.574;9.976;2022-11-14T11:40:37;9.10;99.90
14749;DHT22;7466;53.574;9.976;2022-11-14T11:43:11;9.00;99.90
14749;DHT22;7466;53.574;9.976;2022-11-14T11:45:40;9.20;99.90
14749;DHT22;7466;53.574;9.976;2022-11-14T11:48:14;9.30;99.90
14749;DHT22;7466;53.574;9.976;2022-11-14T11:50:41;9.60;99.90
14749;DHT22;7466;53.574;9.976;2022-11-14T11:53:15;9.60;99.90
14749;DHT22;7466;53.574;9.976;2022-11-14T11:55:46;9.80;99.90
14749;DHT22;7466;53.574;9.976;2022-11-14T11:58:20;10.00;99.90
14749;DHT22;7466;53.574;9.976;2022-11-14T12:00:50;10.00;99.90
14749;DHT22;7466;53.574;9.976;2022-11-14T12:03:19;9.90;99.90
14749;DHT22;7466;53.574;9.976;2022-11-14T12:05:54;9.90;99.90
14749;DHT22;7466;53.574;9.976;2022-11-14T12:08:31;10.00;99.90
14749;DHT22;7466;53.574;9.976;2022-11-14T12:11:01;9.80;99.90
14749;DHT22;7466;53.574;9.976;2022-11-14T12:13:51;9.70;99.90
14749;DHT22;7466;53.574;9.976;2022-11-14T12:16:33;9.70;99.90
14749;DHT22;7466;53.574;9.976;2022-11-14T12:22:06;9.80;99.90
14749;DHT22;7466;53.574;9.976;2022-11-14T12:24:55;9.80;99.90
14749;DHT22;7466;53.574;9.976;2022-11-14T12:27:44;10.10;99.90
14749;DHT22;7466;53.574;9.976;2022-11-14T12:30:17;10.20;99.90
14749;DHT22;7466;53.574;9.976;2022-11-14T12:32:48;10.20;99.90
14749;DHT22;7466;53.574;9.976;2022-11-14T12:35:20;10.30;99.90
14749;DHT22;7466;53.574;9.976;2022-11-14T12:37:49;10.50;99.90
14749;DHT22;7466;53.574;9.976;2022-11-14T12:40:23;10.60;99.90
14749;DHT22;7466;53.574;9.976;2022-11-14T12:42:51;10.90;99.90
14749;DHT22;7466;53.574;9.976;2022-11-14T12:45:55;11.20;99.90
14749;DHT22;7466;53.574;9.976;2022-11-14T12:48:32;11.10;99.90
14749;DHT22;7466;53.574;9.976;2022-11-14T12:51:00;11.30;42.70
14749;DHT22;7466;53.574;9.976;2022-11-14T12:53:38;11.10;28.00
14749;DHT22;7466;53.574;9.976;2022-11-14T12:56:17;11.30;32.40
14749;DHT22;7466;53.574;9.976;2022-11-14T12:59:04;11.40;27.20
14749;DHT22;7466;53.574;9.976;2022-11-14T13:01:45;11.30;29.00
14749;DHT22;7466;53.574;9.976;2022-11-14T13:04:21;11.60;22.20
14749;DHT22;7466;53.574;9.976;2022-11-14T13:06:59;11.80;5.30
14749;DHT22;7466;53.574;9.976;2022-11-14T13:09:34;11.70;4.40
14749;DHT22;7466;53.574;9.976;2022-11-14T13:12:28;11.40;15.30
14749;DHT22;7466;53.574;9.976;2022-11-14T13:15:25;10.90;36.80
14749;DHT22;7466;53.574;9.976;2022-11-14T13:18:15;11.30;31.80
14749;DHT22;7466;53.574;9.976;2022-11-14T13:21:03;11.00;39.50
14749;DHT22;7466;53.574;9.976;2022-11-14T13:23:55;11.20;32.10
14749;DHT22;7466;53.574;9.976;2022-11-14T13:26:46;11.10;40.80
14749;DHT22;7466;53.574;9.976;2022-11-14T13:29:47;11.20;33.80
14749;DHT22;7466;53.574;9.976;2022-11-14T13:32:51;11.00;44.40
14749;DHT22;7466;53.574;9.976;2022-11-14T13:35:25;10.90;47.90
14749;DHT22;7466;53.574;9.976;2022-11-14T13:38:09;11.00;40.70
14749;DHT22;7466;53.574;9.976;2022-11-14T13:40:42;10.70;61.10
14749;DHT22;7466;53.574;9.976;2022-11-14T13:43:18;10.50;82.60
14749;DHT22;7466;53.574;9.976;2022-11-14T13:45:54;10.70;90.90
14749;DHT22;7466;53.574;9.976;2022-11-14T13:49:08;10.80;55.80
14749;DHT22;7466;53.574;9.976;2022-11-14T13:51:40;11.00;49.00
14749;DHT22;7466;53.574;9.976;2022-11-14T13:54:10;10.60;73.40
14749;DHT22;7466;53.574;9.976;2022-11-14T13:56:43;10.60;77.10
14749;DHT22;7466;53.574;9.976;2022-11-14T13:59:37;10.70;78.70
14749;DHT22;7466;53.574;9.976;2022-11-14T14:02:38;10.60;88.10
14749;DHT22;7466;53.574;9.976;2022-11-14T14:05:15;10.40;99.90
14749;DHT22;7466;53.574;9.976;2022-11-14T14:08:07;10.20;99.90
14749;DHT22;7466;53.574;9.976;2022-11-14T14:10:41;10.00;99.90
14749;DHT22;7466;53.574;9.976;2022-11-14T14:13:21;9.90;99.90
14749;DHT22;7466;53.574;9.976;2022-11-14T14:15:59;9.80;99.90
14749;DHT22;7466;53.574;9.976;2022-11-14T14:18:40;9.70;99.90
14749;DHT22;7466;53.574;9.976;2022-11-14T14:21:16;9.70;99.90
14749;DHT22;7466;53.574;9.976;2022-11-14T14:23:48;9.60;99.90
14749;DHT22;7466;53.574;9.976;2022-11-14T14:26:25;9.60;99.90
14749;DHT22;7466;53.574;9.976;2022-11-14T14:29:00;9.50;99.90
14749;DHT22;7466;53.574;9.976;2022-11-14T14:31:34;9.60;99.90
14749;DHT22;7466;53.574;9.976;2022-11-14T14:34:20;9.50;99.90
14749;DHT22;7466;53.574;9.976;2022-11-14T14:36:51;9.40;99.90
14749;DHT22;7466;53.574;9.976;2022-11-14T14:39:20;9.40;99.90
14749;DHT22;7466;53.574;9.976;2022-11-14T14:41:48;9.40;99.90
14749;DHT22;7466;53.574;9.976;2022-11-14T14:44:19;9.40;99.90
14749;DHT22;7466;53.574;9.976;2022-11-14T14:46:47;9.30;99.90
14749;DHT22;7466;53.574;9.976;2022-11-14T14:49:20;9.30;99.90
14749;DHT22;7466;53.574;9.976;2022-11-14T14:51:49;9.20;99.90
14749;DHT22;7466;53.574;9.976;2022-11-14T14:54:21;9.10;99.90
14749;DHT22;7466;53.574;9.976;2022-11-14T14:56:55;9.10;99.90
14749;DHT22;7466;53.574;9.976;2022-11-14T14:59:25;9.10;99.90
14749;DHT22;7466;53.574;9.976;2022-11-14T15:01:53;9.00;99.90
14749;DHT22;7466;53.574;9.976;2022-11-14T15:04:23;9.00;99.90
14749;DHT22;7466;53.574;9.976;2022-11-14T15:06:51;9.00;99.90
14749;DHT22;7466;53.574;9.976;2022-11-14T15:09:21;8.90;99.90
14749;DHT22;7466;53.574;9.976;2022-11-14T15:11:50;8.90;99.90
14749;DHT22;7466;53.574;9.976;2022-11-14T15:14:20;8.90;99.90
14749;DHT22;7466;53.574;9.976;2022-11-14T15:16:48;8.80;99.90
14749;DHT22;7466;53.574;9.976;2022-11-14T15:19:18;8.80;99.90
14749;DHT22;7466;53.574;9.976;2022-11-14T15:22:00;8.80;99.90
14749;DHT22;7466;53.574;9.976;2022-11-14T15:24:27;8.70;99.90
14749;DHT22;7466;53.574;9.976;2022-11-14T15:26:54;8.70;99.90
14749;DHT22;7466;53.574;9.976;2022-11-14T15:29:22;8.60;99.90
14749;DHT22;7466;53.574;9.976;2022-11-14T15:31:51;8.60;99.90
14749;DHT22;7466;53.574;9.976;2022-11-14T15:34:24;8.50;99.90
14749;DHT22;7466;53.574;9.976;2022-11-14T15:37:18;8.40;99.90
14749;DHT22;7466;53.574;9.976;2022-11-14T15:39:46;8.40;99.90
14749;DHT22;7466;53.574;9.976;2022-11-14T15:42:13;8.40;99.90
14749;DHT22;7466;53.574;9.976;2022-11-14T15:44:41;8.30;99.90
14749;DHT22;7466;53.574;9.976;2022-11-14T15:47:10;8.30;99.90
14749;DHT22;7466;53.574;9.976;2022-11-14T15:49:38;8.20;99.90
14749;DHT22;7466;53.574;9.976;2022-11-14T15:52:18;8.20;99.90
14749;DHT22;7466;53.574;9.976;2022-11-14T15:54:46;8.20;99.90
14749;DHT22;7466;53.574;9.976;2022-11-14T15:57:14;8.10;99.90
14749;DHT22;7466;53.574;9.976;2022-11-14T15:59:42;8.10;99.90
14749;DHT22;7466;53.574;9.976;2022-11-14T16:02:13;8.10;99.90
14749;DHT22;7466;53.574;9.976;2022-11-14T16:04:42;8.00;99.90
14749;DHT22;7466;53.574;9.976;2022-11-14T16:07:11;8.00;99.90
14749;DHT22;7466;53.574;9.976;2022-11-14T16:09:39;8.00;99.90
14749;DHT22;7466;53.574;9.976;2022-11-14T16:12:07;8.00;99.90
14749;DHT22;7466;53.574;9.976;2022-11-14T16:14:34;7.90;99.90
14749;DHT22;7466;53.574;9.976;2022-11-14T16:17:00;7.90;99.90
14749;DHT22;7466;53.574;9.976;2022-11-14T16:19:27;8.00;99.90
14749;DHT22;7466;53.574;9.976;2022-11-14T16:21:57;8.00;99.90
14749;DHT22;7466;53.574;9.976;2022-11-14T16:24:27;7.90;99.90
14749;DHT22;7466;53.574;9.976;2022-11-14T16:26:55;7.90;99.90
14749;DHT22;7466;53.574;9.976;2022-11-14T16:29:23;7.90;99.90
14749;DHT22;7466;53.574;9.976;2022-11-14T16:31:50;7.90;99.90